Wind From: 10-12-2017 19:04 Until: 11-12-2017 16:00 warning for: Wind Level: Orange info button

Power and phone distribution networks may be disrupted for relatively long periods., Roofs and chimneys can be damaged. , Tree branches may break. , Vehicles can be deported. , Traffic may be disrupted, particularly on secondary roads in forest areas. Limit your trips. , Limit your speed in highway driving, especially if you drive a vehicle or hitch sensitive to wind. , Do not go for walks in forests or along the coast., In town, be vigilant against possible falling objects., Do not work on roofs and do not touch any electrical line fallen on the ground., Store or secure sensitive objects to wind or likely to be damaged., Always install power generators outside buildings. 


Meteo18 Weather Cam more information Meteo18 Weather Cam


Thunder radar more information blitzortung!


Rain radar more information rain snow radar


Visit our other weather sites:

Template documentation
and downloads

And another site



Weather Underground History page Text

Daily Summary for September 16, 2017 Units:  Metric    English   Both
« Previous Day
Next Day »
Daily Weekly Monthly Yearly Custom
  High: Low: Average:
Temperature: 14.3 °C 6.2 °C 9.8 °C
Dew Point: 10.5 °C 5.5 °C 8.1 °C
Humidity: 96 % 73 % 90 %
Wind Speed: 17.7 km/h 0.0 km/h 1.2 km/h
Wind Gust: 37.0 km/h - -
Wind:- - SSW
Pressure: 1014.8 hPa 1012.8 hPa -
Precipitation: 11.2 mm    
Historical Graphs
 
 
Tabular Data for September 16, 2017
Time Temperature Dew Point Pressure Wind Wind Speed Wind Gust Humidity Rainfall Rate (Hourly)
00:02 9.3 °C 7.6 °C 1014.8 hPa Calm   3.2 km/h 89 % 0.0 mm
00:07 9.3 °C 7.6 °C 1014.8 hPa Calm   3.2 km/h 89 % 0.0 mm
00:12 9.1 °C 7.4 °C 1014.8 hPa Calm   1.6 km/h 89 % 0.0 mm
00:17 9.0 °C 7.4 °C 1014.8 hPa Calm   1.6 km/h 90 % 0.0 mm
00:22 8.8 °C 7.2 °C 1014.8 hPa WNW 3.2 km/h 3.2 km/h 90 % 0.0 mm
00:32 8.8 °C 7.4 °C 1014.4 hPa Calm   3.2 km/h 91 % 0.0 mm
00:42 8.7 °C 7.2 °C 1014.4 hPa Calm   3.2 km/h 90 % 0.0 mm
00:52 8.7 °C 7.3 °C 1014.4 hPa Calm   1.6 km/h 91 % 0.0 mm
00:57 8.7 °C 7.3 °C 1014.4 hPa Calm   1.6 km/h 91 % 0.0 mm
01:02 8.7 °C 7.3 °C 1014.4 hPa Calm   1.6 km/h 91 % 0.0 mm
01:07 8.7 °C 7.3 °C 1014.4 hPa Calm     91 % 0.0 mm
01:12 8.7 °C 7.3 °C 1014.4 hPa Calm     91 % 0.0 mm
01:17 8.7 °C 7.3 °C 1014.4 hPa Calm   1.6 km/h 91 % 0.0 mm
01:22 8.7 °C 7.3 °C 1014.4 hPa Calm   1.6 km/h 91 % 0.0 mm
01:27 8.7 °C 7.3 °C 1014.1 hPa Calm   1.6 km/h 91 % 0.0 mm
01:32 8.7 °C 7.3 °C 1014.1 hPa Calm   1.6 km/h 91 % 0.0 mm
01:37 8.7 °C 7.3 °C 1014.1 hPa Calm   1.6 km/h 91 % 0.0 mm
01:42 8.7 °C 7.3 °C 1014.1 hPa Calm     91 % 0.0 mm
01:47 8.7 °C 7.3 °C 1014.1 hPa Calm     91 % 0.0 mm
01:52 8.7 °C 7.3 °C 1014.1 hPa Calm     91 % 0.0 mm
01:57 8.7 °C 7.3 °C 1014.1 hPa Calm   1.6 km/h 91 % 0.0 mm
02:02 8.6 °C 7.2 °C 1014.1 hPa Calm   1.6 km/h 91 % 0.0 mm
02:07 8.6 °C 7.2 °C 1014.1 hPa Calm   1.6 km/h 91 % 0.0 mm
02:12 8.4 °C 7.0 °C 1014.1 hPa Calm   1.6 km/h 91 % 0.0 mm
02:17 8.3 °C 7.1 °C 1014.1 hPa Calm   1.6 km/h 92 % 0.0 mm
02:22 8.2 °C 7.0 °C 1014.1 hPa Calm   1.6 km/h 92 % 0.0 mm
02:32 8.1 °C 6.9 °C 1013.8 hPa Calm     92 % 0.0 mm
02:37 7.9 °C 6.7 °C 1013.8 hPa Calm     92 % 0.0 mm
02:42 7.9 °C 6.8 °C 1013.8 hPa Calm   1.6 km/h 93 % 0.0 mm
02:47 7.8 °C 6.7 °C 1013.8 hPa Calm   1.6 km/h 93 % 0.0 mm
02:52 8.0 °C 6.9 °C 1013.8 hPa Calm   1.6 km/h 93 % 0.0 mm
02:57 7.9 °C 6.8 °C 1013.8 hPa Calm   1.6 km/h 93 % 0.0 mm
03:02 7.8 °C 6.7 °C 1013.8 hPa Calm   1.6 km/h 93 % 0.0 mm
03:07 7.7 °C 6.6 °C 1013.8 hPa Calm   1.6 km/h 93 % 0.0 mm
03:12 7.6 °C 6.5 °C 1013.8 hPa Calm   1.6 km/h 93 % 0.0 mm
03:17 7.4 °C 6.3 °C 1013.8 hPa Calm   1.6 km/h 93 % 0.0 mm
03:22 7.6 °C 6.7 °C 1013.8 hPa Calm   1.6 km/h 94 % 0.0 mm
03:27 7.6 °C 6.7 °C 1013.4 hPa Calm     94 % 0.0 mm
03:32 7.5 °C 6.6 °C 1013.4 hPa Calm     94 % 0.0 mm
03:37 7.6 °C 6.7 °C 1013.4 hPa Calm     94 % 0.0 mm
03:42 7.4 °C 6.5 °C 1013.4 hPa Calm     94 % 0.0 mm
03:47 7.3 °C 6.4 °C 1013.4 hPa North 1.6 km/h 3.2 km/h 94 % 0.0 mm
03:52 7.2 °C 6.3 °C 1013.4 hPa North 3.2 km/h 4.8 km/h 94 % 0.0 mm
03:57 7.1 °C 6.2 °C 1013.4 hPa Calm   4.8 km/h 94 % 0.0 mm
04:02 6.9 °C 6.0 °C 1013.4 hPa Calm   4.8 km/h 94 % 0.0 mm
04:07 6.8 °C 5.9 °C 1013.4 hPa Calm   4.8 km/h 94 % 0.0 mm
04:12 6.9 °C 6.0 °C 1013.1 hPa Calm   1.6 km/h 94 % 0.0 mm
04:17 6.9 °C 6.0 °C 1013.1 hPa Calm   1.6 km/h 94 % 0.0 mm
04:22 6.7 °C 5.8 °C 1013.4 hPa Calm   1.6 km/h 94 % 0.0 mm
04:27 6.7 °C 6.0 °C 1013.4 hPa Calm   1.6 km/h 95 % 0.0 mm
04:32 6.7 °C 5.8 °C 1013.4 hPa Calm   1.6 km/h 94 % 0.0 mm
04:37 6.4 °C 5.5 °C 1013.4 hPa Calm     94 % 0.0 mm
04:42 6.6 °C 5.9 °C 1013.4 hPa Calm     95 % 0.0 mm
04:47 6.5 °C 5.8 °C 1013.4 hPa Calm     95 % 0.0 mm
04:52 6.6 °C 5.9 °C 1013.1 hPa Calm     95 % 0.0 mm
05:02 6.7 °C 6.0 °C 1013.1 hPa Calm     95 % 0.0 mm
05:07 6.4 °C 5.5 °C 1013.1 hPa Calm   1.6 km/h 94 % 0.0 mm
05:12 6.3 °C 5.6 °C 1013.1 hPa Calm   1.6 km/h 95 % 0.0 mm
05:17 6.2 °C 5.5 °C 1013.1 hPa Calm   1.6 km/h 95 % 0.0 mm
05:22 6.2 °C 5.5 °C 1013.1 hPa Calm   1.6 km/h 95 % 0.0 mm
05:32 6.2 °C 5.5 °C 1013.1 hPa Calm     95 % 0.0 mm
05:37 6.2 °C 5.5 °C 1013.1 hPa Calm     95 % 0.0 mm
05:42 6.2 °C 5.5 °C 1013.1 hPa Calm   1.6 km/h 95 % 0.0 mm
05:47 6.2 °C 5.5 °C 1013.1 hPa Calm   1.6 km/h 95 % 0.0 mm
05:52 6.3 °C 5.6 °C 1013.1 hPa Calm   1.6 km/h 95 % 0.0 mm
05:57 6.3 °C 5.6 °C 1013.1 hPa Calm     95 % 0.0 mm
06:02 6.4 °C 5.7 °C 1013.1 hPa Calm   1.6 km/h 95 % 0.0 mm
06:12 6.4 °C 5.7 °C 1013.1 hPa Calm   1.6 km/h 95 % 0.0 mm
06:17 6.3 °C 5.6 °C 1012.8 hPa Calm     95 % 0.0 mm
06:22 6.3 °C 5.6 °C 1012.8 hPa Calm     95 % 0.0 mm
06:32 6.3 °C 5.6 °C 1012.8 hPa Calm     95 % 0.0 mm
06:42 6.2 °C 5.5 °C 1012.8 hPa Calm     95 % 0.0 mm
06:47 6.2 °C 5.5 °C 1012.8 hPa Calm     95 % 0.0 mm
06:52 6.2 °C 5.5 °C 1012.8 hPa Calm     95 % 0.0 mm
07:02 6.4 °C 5.8 °C 1012.8 hPa Calm     96 % 0.0 mm
07:12 6.4 °C 5.8 °C 1012.8 hPa Calm   1.6 km/h 96 % 0.0 mm
07:17 6.5 °C 5.9 °C 1012.8 hPa Calm   1.6 km/h 96 % 0.0 mm
07:22 6.6 °C 6.0 °C 1012.8 hPa Calm   1.6 km/h 96 % 0.0 mm
07:32 6.6 °C 6.0 °C 1013.1 hPa Calm   1.6 km/h 96 % 0.0 mm
07:42 6.7 °C 6.1 °C 1013.1 hPa Calm   1.6 km/h 96 % 0.0 mm
07:47 6.8 °C 6.2 °C 1013.1 hPa Calm   1.6 km/h 96 % 0.0 mm
08:02 7.2 °C 6.6 °C 1013.1 hPa South 1.6 km/h 3.2 km/h 96 % 0.0 mm
08:12 7.2 °C 6.6 °C 1013.1 hPa South 1.6 km/h 4.8 km/h 96 % 0.0 mm
08:17 7.4 °C 6.8 °C 1013.1 hPa SSE 1.6 km/h 4.8 km/h 96 % 0.0 mm
08:22 7.6 °C 7.0 °C 1013.1 hPa Calm   3.2 km/h 96 % 0.0 mm
08:27 7.8 °C 7.2 °C 1013.1 hPa Calm   3.2 km/h 96 % 0.0 mm
08:32 8.1 °C 7.5 °C 1013.1 hPa SSE 1.6 km/h 3.2 km/h 96 % 0.0 mm
08:42 8.5 °C 7.9 °C 1013.1 hPa SSE 1.6 km/h 4.8 km/h 96 % 0.0 mm
08:47 8.7 °C 8.1 °C 1013.1 hPa Calm   6.4 km/h 96 % 0.0 mm
08:52 8.8 °C 8.0 °C 1013.1 hPa Calm   6.4 km/h 95 % 0.0 mm
08:57 8.9 °C 8.1 °C 1013.1 hPa SSW 1.6 km/h 6.4 km/h 95 % 0.0 mm
09:02 9.0 °C 8.2 °C 1013.1 hPa South 1.6 km/h 6.4 km/h 95 % 0.0 mm
09:12 9.2 °C 8.4 °C 1013.4 hPa Calm   6.4 km/h 95 % 0.0 mm
09:17 9.3 °C 8.4 °C 1013.4 hPa SW 3.2 km/h 6.4 km/h 94 % 0.0 mm
09:22 9.4 °C 8.5 °C 1013.4 hPa SW 3.2 km/h 6.4 km/h 94 % 0.0 mm
09:32 9.7 °C 8.6 °C 1013.4 hPa Calm   8.0 km/h 93 % 0.0 mm
09:37 10.1 °C 8.9 °C 1013.4 hPa SW 1.6 km/h 8.0 km/h 92 % 0.0 mm
09:42 10.3 °C 8.9 °C 1013.4 hPa SW 6.4 km/h 8.0 km/h 91 % 0.0 mm
09:47 10.3 °C 8.6 °C 1013.8 hPa SW 4.8 km/h 8.0 km/h 89 % 0.0 mm
09:52 10.4 °C 8.7 °C 1013.8 hPa SSW 6.4 km/h 8.0 km/h 89 % 0.0 mm
09:57 10.3 °C 8.6 °C 1013.8 hPa WSW 6.4 km/h 8.0 km/h 89 % 0.0 mm
10:02 10.3 °C 8.6 °C 1013.8 hPa SW 8.0 km/h 8.0 km/h 89 % 0.0 mm
10:12 10.3 °C 8.6 °C 1013.8 hPa SW 4.8 km/h 9.7 km/h 89 % 0.0 mm
10:17 10.4 °C 8.7 °C 1013.8 hPa SW 1.6 km/h 11.3 km/h 89 % 0.0 mm
10:22 10.4 °C 8.5 °C 1014.1 hPa SSW 4.8 km/h 11.3 km/h 88 % 0.0 mm
10:32 10.6 °C 8.7 °C 1014.1 hPa SW 4.8 km/h 11.3 km/h 88 % 0.0 mm
10:42 10.7 °C 8.6 °C 1014.1 hPa SW 8.0 km/h 9.7 km/h 87 % 0.0 mm
10:47 10.8 °C 8.7 °C 1014.1 hPa SW 4.8 km/h 11.3 km/h 87 % 0.0 mm
10:52 11.0 °C 8.9 °C 1014.1 hPa SSW 4.8 km/h 11.3 km/h 87 % 0.0 mm
10:57 11.2 °C 8.9 °C 1014.1 hPa South 4.8 km/h 11.3 km/h 86 % 0.0 mm
11:02 11.2 °C 8.9 °C 1014.1 hPa SSW 3.2 km/h 11.3 km/h 86 % 0.0 mm
11:12 11.3 °C 8.7 °C 1014.1 hPa SSW 1.6 km/h 14.5 km/h 84 % 0.0 mm
11:22 11.6 °C 8.8 °C 1014.1 hPa SSW 9.7 km/h 12.9 km/h 83 % 0.0 mm
11:32 11.8 °C 8.8 °C 1014.1 hPa SW 4.8 km/h 12.9 km/h 82 % 0.0 mm
11:42 12.2 °C 9.0 °C 1014.1 hPa SSW 4.8 km/h 12.9 km/h 81 % 0.0 mm
11:47 12.2 °C 9.0 °C 1014.1 hPa SSW 3.2 km/h 12.9 km/h 81 % 0.0 mm
11:52 12.3 °C 8.8 °C 1014.1 hPa SW 9.7 km/h 12.9 km/h 79 % 0.0 mm
11:57 12.4 °C 9.0 °C 1013.8 hPa SSW 1.6 km/h 12.9 km/h 80 % 0.0 mm
12:02 12.5 °C 9.0 °C 1013.8 hPa SW 1.6 km/h 14.5 km/h 79 % 0.0 mm
12:12 12.6 °C 8.7 °C 1014.1 hPa SW 6.4 km/h 14.5 km/h 77 % 0.0 mm
12:17 12.8 °C 8.9 °C 1014.1 hPa West 1.6 km/h 12.9 km/h 77 % 0.0 mm
12:22 13.1 °C 9.2 °C 1013.8 hPa South 9.7 km/h 12.9 km/h 77 % 0.0 mm
12:32 13.0 °C 8.7 °C 1013.8 hPa SW 4.8 km/h 16.1 km/h 75 % 0.0 mm
12:42 13.1 °C 9.0 °C 1013.8 hPa SW 4.8 km/h 16.1 km/h 76 % 0.0 mm
12:47 13.1 °C 8.8 °C 1013.8 hPa WSW 4.8 km/h 14.5 km/h 75 % 0.0 mm
12:52 13.2 °C 9.1 °C 1013.8 hPa WNW 4.8 km/h 14.5 km/h 76 % 0.0 mm
12:57 13.3 °C 9.2 °C 1013.8 hPa West 4.8 km/h 11.3 km/h 76 % 0.0 mm
13:02 13.3 °C 9.0 °C 1013.8 hPa Calm   11.3 km/h 75 % 0.0 mm
13:12 13.2 °C 8.9 °C 1013.8 hPa West 3.2 km/h 11.3 km/h 75 % 0.0 mm
13:17 12.3 °C 8.2 °C 1014.1 hPa WNW 17.7 km/h 17.7 km/h 76 % 0.0 mm
13:22 10.6 °C 7.5 °C 1014.1 hPa West 17.7 km/h 37.0 km/h 81 % 0.3 mm
13:32 9.4 °C 7.3 °C 1014.1 hPa West 3.2 km/h 37.0 km/h 87 % 0.5 mm
13:42 9.4 °C 7.5 °C 1013.8 hPa Calm   22.5 km/h 88 % 1.5 mm
13:52 9.6 °C 7.7 °C 1013.8 hPa Calm   9.7 km/h 88 % 1.8 mm
13:57 9.6 °C 7.9 °C 1013.8 hPa West 1.6 km/h 4.8 km/h 89 % 2.0 mm
14:02 9.7 °C 8.1 °C 1013.8 hPa Calm   4.8 km/h 90 % 2.0 mm
14:12 10.0 °C 8.3 °C 1013.8 hPa Calm   1.6 km/h 89 % 2.3 mm
14:17 10.2 °C 8.5 °C 1013.8 hPa Calm   1.6 km/h 89 % 2.0 mm
14:22 10.6 °C 8.7 °C 1013.8 hPa Calm     88 % 1.5 mm
14:27 10.8 °C 8.9 °C 1013.4 hPa NNW 1.6 km/h 4.8 km/h 88 % 1.0 mm
14:32 11.1 °C 8.8 °C 1013.4 hPa Calm   4.8 km/h 86 % 0.8 mm
14:37 11.4 °C 9.1 °C 1013.4 hPa Calm   4.8 km/h 86 % 0.5 mm
14:42 11.7 °C 9.3 °C 1013.4 hPa Calm   1.6 km/h 85 % 0.5 mm
14:47 11.8 °C 9.2 °C 1013.4 hPa Calm   1.6 km/h 84 % 0.5 mm
14:52 11.8 °C 8.6 °C 1013.4 hPa Calm   1.6 km/h 81 % 0.3 mm
14:57 11.9 °C 8.9 °C 1013.4 hPa Calm   1.6 km/h 82 % 0.3 mm
15:02 12.1 °C 9.1 °C 1013.4 hPa Calm   1.6 km/h 82 % 0.0 mm
15:07 12.2 °C 9.2 °C 1013.4 hPa Calm   1.6 km/h 82 % 0.0 mm
15:12 12.2 °C 8.9 °C 1013.4 hPa Calm   3.2 km/h 80 % 0.0 mm
15:17 12.4 °C 9.0 °C 1013.4 hPa Calm   3.2 km/h 80 % 0.0 mm
15:22 12.9 °C 9.7 °C 1013.1 hPa Calm   3.2 km/h 81 % 0.0 mm
15:32 13.3 °C 9.5 °C 1013.1 hPa ESE 1.6 km/h 6.4 km/h 78 % 0.0 mm
15:37 13.7 °C 10.1 °C 1013.1 hPa Calm   6.4 km/h 79 % 0.0 mm
15:42 14.1 °C 10.3 °C 1013.1 hPa SSE 3.2 km/h 6.4 km/h 78 % 0.0 mm
15:47 14.0 °C 9.4 °C 1013.1 hPa SW 4.8 km/h 4.8 km/h 74 % 0.0 mm
15:52 13.7 °C 9.7 °C 1013.1 hPa WSW 1.6 km/h 9.7 km/h 77 % 0.0 mm
15:57 13.7 °C 9.9 °C 1013.1 hPa East 1.6 km/h 9.7 km/h 78 % 0.0 mm
16:02 13.7 °C 10.3 °C 1013.1 hPa SSW 6.4 km/h 8.0 km/h 80 % 0.0 mm
16:12 13.5 °C 9.0 °C 1012.8 hPa Calm   11.3 km/h 74 % 0.0 mm
16:17 13.4 °C 9.6 °C 1012.8 hPa Calm   11.3 km/h 78 % 0.0 mm
16:22 13.5 °C 9.7 °C 1012.8 hPa SW 1.6 km/h 11.3 km/h 78 % 0.0 mm
16:27 13.4 °C 9.8 °C 1012.8 hPa Calm   8.0 km/h 79 % 0.0 mm
16:32 13.4 °C 9.6 °C 1012.8 hPa SE 3.2 km/h 8.0 km/h 78 % 0.0 mm
16:37 13.4 °C 9.4 °C 1012.8 hPa Calm   8.0 km/h 77 % 0.0 mm
16:42 13.7 °C 9.9 °C 1012.8 hPa Calm   4.8 km/h 78 % 0.0 mm
16:47 14.3 °C 10.5 °C 1012.8 hPa SSW 4.8 km/h 4.8 km/h 78 % 0.0 mm
16:52 14.3 °C 9.5 °C 1012.8 hPa South 1.6 km/h 6.4 km/h 73 % 0.0 mm
16:57 13.8 °C 9.4 °C 1012.8 hPa NE 1.6 km/h 6.4 km/h 75 % 0.0 mm
17:02 13.5 °C 9.5 °C 1013.1 hPa NE 1.6 km/h 6.4 km/h 77 % 0.0 mm
17:07 13.2 °C 9.8 °C 1013.1 hPa NW 1.6 km/h 6.4 km/h 80 % 0.0 mm
17:12 12.4 °C 9.6 °C 1013.1 hPa WNW 4.8 km/h 12.9 km/h 83 % 0.5 mm
17:17 11.6 °C 9.3 °C 1013.1 hPa NW 4.8 km/h 16.1 km/h 86 % 3.0 mm
17:22 11.2 °C 8.9 °C 1012.8 hPa NE 1.6 km/h 16.1 km/h 86 % 6.1 mm
17:27 11.1 °C 9.2 °C 1012.8 hPa Calm   16.1 km/h 88 % 7.9 mm
17:32 11.1 °C 9.4 °C 1013.1 hPa West 1.6 km/h 6.4 km/h 89 % 7.9 mm
17:37 11.0 °C 9.4 °C 1013.1 hPa Calm   4.8 km/h 90 % 7.9 mm
17:42 11.0 °C 9.6 °C 1012.8 hPa ENE 3.2 km/h 6.4 km/h 91 % 7.9 mm
17:47 11.0 °C 9.6 °C 1012.8 hPa NE 1.6 km/h 6.4 km/h 91 % 7.9 mm
17:52 11.1 °C 9.8 °C 1012.8 hPa Calm   6.4 km/h 92 % 7.9 mm
17:57 11.2 °C 9.9 °C 1012.8 hPa NE 3.2 km/h 6.4 km/h 92 % 7.9 mm
18:02 11.2 °C 9.9 °C 1012.8 hPa Calm   4.8 km/h 92 % 7.9 mm
18:07 11.1 °C 9.7 °C 1013.1 hPa Calm   4.8 km/h 91 % 8.4 mm
18:12 11.1 °C 9.8 °C 1013.1 hPa Calm   4.8 km/h 92 % 7.9 mm
18:17 11.0 °C 9.4 °C 1013.1 hPa Calm   4.8 km/h 90 % 7.9 mm
18:22 11.1 °C 9.5 °C 1012.8 hPa Calm   1.6 km/h 90 % 4.3 mm
18:32 11.2 °C 9.6 °C 1012.8 hPa Calm   1.6 km/h 90 % 1.3 mm
18:42 11.8 °C 10.0 °C 1012.8 hPa Calm     89 % 1.0 mm
18:47 12.3 °C 10.0 °C 1012.8 hPa Calm     86 % 1.0 mm
18:52 12.3 °C 10.0 °C 1012.8 hPa Calm   1.6 km/h 86 % 1.0 mm
18:57 12.2 °C 10.1 °C 1012.8 hPa Calm   1.6 km/h 87 % 1.0 mm
19:02 12.1 °C 10.2 °C 1012.8 hPa Calm   1.6 km/h 88 % 0.8 mm
19:07 12.0 °C 10.1 °C 1013.1 hPa Calm   1.6 km/h 88 % 0.5 mm
19:12 12.1 °C 10.2 °C 1012.8 hPa Calm   3.2 km/h 88 % 0.3 mm
19:17 12.1 °C 10.3 °C 1013.1 hPa Calm   3.2 km/h 89 % 0.3 mm
19:22 11.9 °C 10.0 °C 1013.1 hPa Calm   3.2 km/h 88 % 0.0 mm
19:27 11.8 °C 10.0 °C 1013.1 hPa Calm   1.6 km/h 89 % 0.0 mm
19:32 11.7 °C 9.8 °C 1013.1 hPa Calm   1.6 km/h 88 % 0.0 mm
19:37 11.6 °C 9.8 °C 1013.1 hPa Calm   1.6 km/h 89 % 0.0 mm
19:42 11.4 °C 9.7 °C 1013.1 hPa Calm   1.6 km/h 89 % 0.0 mm
19:47 11.3 °C 9.6 °C 1013.1 hPa Calm   1.6 km/h 89 % 0.0 mm
19:52 11.1 °C 9.4 °C 1013.1 hPa Calm     89 % 0.0 mm
19:57 10.9 °C 9.3 °C 1013.1 hPa Calm     90 % 0.0 mm
20:02 10.8 °C 9.2 °C 1013.1 hPa Calm     90 % 0.0 mm
20:07 10.7 °C 9.3 °C 1013.1 hPa Calm     91 % 0.0 mm
20:12 10.5 °C 9.1 °C 1013.1 hPa Calm     91 % 0.0 mm
20:17 10.4 °C 9.0 °C 1013.1 hPa Calm     91 % 0.0 mm
20:22 10.3 °C 9.1 °C 1013.1 hPa Calm     92 % 0.0 mm
20:27 10.2 °C 9.0 °C 1013.4 hPa Calm     92 % 0.0 mm
20:32 10.0 °C 8.8 °C 1013.4 hPa Calm     92 % 0.0 mm
20:37 9.8 °C 8.6 °C 1013.4 hPa Calm     92 % 0.0 mm
20:42 9.7 °C 8.6 °C 1013.4 hPa Calm     93 % 0.0 mm
20:47 9.7 °C 8.6 °C 1013.4 hPa Calm     93 % 0.0 mm
20:52 9.7 °C 8.8 °C 1013.4 hPa Calm     94 % 0.0 mm
20:57 9.6 °C 8.7 °C 1013.4 hPa Calm     94 % 0.0 mm
21:02 9.6 °C 8.7 °C 1013.4 hPa Calm     94 % 0.0 mm
21:07 9.5 °C 8.6 °C 1013.4 hPa Calm     94 % 0.0 mm
21:12 9.5 °C 8.6 °C 1013.4 hPa Calm     94 % 0.0 mm
21:17 9.4 °C 8.5 °C 1013.8 hPa Calm     94 % 0.0 mm
21:22 9.4 °C 8.6 °C 1013.8 hPa Calm   1.6 km/h 95 % 0.0 mm
21:27 9.5 °C 8.7 °C 1013.8 hPa Calm   1.6 km/h 95 % 0.0 mm
21:32 9.4 °C 8.5 °C 1013.8 hPa Calm   1.6 km/h 94 % 0.0 mm
21:42 9.3 °C 8.5 °C 1013.8 hPa Calm     95 % 0.0 mm
21:52 9.2 °C 8.4 °C 1013.8 hPa Calm   1.6 km/h 95 % 0.0 mm
21:57 9.2 °C 8.4 °C 1013.8 hPa Calm   1.6 km/h 95 % 0.0 mm
22:02 9.1 °C 8.3 °C 1013.4 hPa Calm   1.6 km/h 95 % 0.0 mm
22:07 9.1 °C 8.3 °C 1013.8 hPa Calm     95 % 0.0 mm
22:12 9.0 °C 8.2 °C 1013.8 hPa Calm     95 % 0.0 mm
22:17 8.9 °C 8.1 °C 1013.8 hPa Calm     95 % 0.0 mm
22:22 8.9 °C 8.1 °C 1013.8 hPa Calm     95 % 0.0 mm
22:32 9.0 °C 8.2 °C 1013.8 hPa Calm   1.6 km/h 95 % 0.0 mm
22:37 8.9 °C 8.1 °C 1013.8 hPa Calm   1.6 km/h 95 % 0.0 mm
22:42 8.8 °C 8.0 °C 1013.8 hPa Calm   1.6 km/h 95 % 0.0 mm
22:47 8.8 °C 8.0 °C 1013.8 hPa Calm   1.6 km/h 95 % 0.0 mm
22:52 8.9 °C 8.1 °C 1013.8 hPa Calm   1.6 km/h 95 % 0.0 mm
23:02 8.8 °C 8.0 °C 1013.8 hPa Calm   3.2 km/h 95 % 0.0 mm
23:07 8.8 °C 8.0 °C 1013.8 hPa Calm   3.2 km/h 95 % 0.0 mm
23:12 8.8 °C 8.0 °C 1013.8 hPa Calm   1.6 km/h 95 % 0.0 mm
23:22 8.8 °C 8.2 °C 1014.1 hPa Calm   3.2 km/h 96 % 0.0 mm
23:27 8.9 °C 8.3 °C 1014.1 hPa Calm   3.2 km/h 96 % 0.0 mm
23:32 8.9 °C 8.3 °C 1014.1 hPa Calm   3.2 km/h 96 % 0.0 mm
23:37 9.1 °C 8.5 °C 1014.1 hPa SW 1.6 km/h 1.6 km/h 96 % 0.0 mm
23:42 9.2 °C 8.6 °C 1014.1 hPa SW 3.2 km/h 3.2 km/h 96 % 0.0 mm
23:47 9.3 °C 8.5 °C 1014.1 hPa Calm   4.8 km/h 95 % 0.0 mm
23:52 9.3 °C 8.5 °C 1014.1 hPa Calm   4.8 km/h 95 % 0.0 mm
23:57 9.4 °C 8.6 °C 1014.1 hPa Calm   4.8 km/h 95 % 0.0 mm
Meteo18
Compliments of Weather Underground - 4 mb

Script developed by  Jim McMurry - jmcmurry@mwt.net Adapted for the template by  Wim van der Kuil - Leuven-Template.eu

You find our weather info also at:

European Weather Network

Weather Underground

Equipment we use:

Weather-station
Davis Vue

Weather-program
Meteohub

Weather-server
Raspberry PI 2 B+

Provider
1 and 1

Davis Vue

Meteohub

Raspberry PI 2 B+

1 and 1